»·PEaware :: N91DM KSBA-KSBA

N91DM :: KSBA-KSBA

FLIGHT INFORMATION

Flight Status: Arrived
Operator: Privately registered:
United States
More flights under this callsign
Pilot: Jeff L. (31878)
Aircraft: CESSNA 172 SKYHAWK
(C172)
More flights by this aircraft type
Origin: KSBA Santa Barbara Mun
United States
Destination: KSBA Santa Barbara Mun
United States
More flights between these airports :: More routes between these airports
Route: LOCAL
File this flight plan on PilotEdge
Remarks:
Altitude:
(Current/Filed)
3,000ft
Speed:
(Current/Filed)
110kts
Departed: 28-Oct-20 05:23 PM
Arrived: 28-Oct-20 06:09 PM
Distance/Time
Traveled:
0nm/0:46
Distance/Time
To Go:
Arrived

Flight Plot

Page will automatically refresh every two minutes.


Map Options




Map Legend


Flown Route
Filed Route
Departure Airport
Arrival Airport
Navaid (VOR, NDB)
Fix

Horizontal Profiles

Position Reports

Time Latitude Longitude Heading Altitude Ground
Speed
28-Oct-20 17:05 34.423220 -119.835675 344 12ft 0kts
28-Oct-20 17:06 34.423220 -119.835675 344 12ft 0kts
28-Oct-20 17:07 34.423220 -119.835675 344 12ft 0kts
28-Oct-20 17:08 34.423220 -119.835675 344 12ft 0kts
28-Oct-20 17:09 34.423220 -119.835675 344 12ft 0kts
28-Oct-20 17:10 34.423220 -119.835675 344 12ft 0kts
28-Oct-20 17:11 34.423220 -119.835675 344 12ft 0kts
28-Oct-20 17:12 34.423220 -119.835675 344 12ft 0kts
28-Oct-20 17:13 34.423220 -119.835675 344 12ft 0kts
28-Oct-20 17:14 34.423220 -119.835675 344 12ft 0kts
28-Oct-20 17:15 34.423220 -119.835675 344 12ft 0kts
28-Oct-20 17:16 34.423402 -119.837228 334 13ft 10kts
28-Oct-20 17:17 34.427075 -119.838454 344 14ft 16kts
28-Oct-20 17:18 34.430811 -119.839811 253 11ft 0kts
28-Oct-20 17:19 34.430811 -119.839811 253 11ft 0kts
28-Oct-20 17:20 34.430811 -119.839811 253 11ft 0kts
28-Oct-20 17:21 34.429924 -119.840134 164 12ft 22kts
28-Oct-20 17:22 34.413621 -119.834477 167 521ft 65kts
28-Oct-20 17:23 34.397766 -119.829993 164 1074ft 60kts
28-Oct-20 17:24 34.389327 -119.811539 113 1682ft 67kts
28-Oct-20 17:25 34.381242 -119.785588 115 2161ft 99kts
28-Oct-20 17:26 34.370458 -119.753268 112 2547ft 108kts
28-Oct-20 17:27 34.357531 -119.717574 121 2523ft 120kts
28-Oct-20 17:28 34.342770 -119.680100 112 2520ft 123kts
28-Oct-20 17:29 34.335927 -119.640233 67 2540ft 120kts
28-Oct-20 17:30 34.346881 -119.602361 92 2524ft 122kts
28-Oct-20 17:31 34.343145 -119.560794 95 2519ft 122kts
28-Oct-20 17:32 34.329244 -119.522840 108 2496ft 125kts
28-Oct-20 17:33 34.318058 -119.483539 108 2537ft 123kts
28-Oct-20 17:34 34.306757 -119.444116 108 2532ft 124kts
28-Oct-20 17:35 34.295315 -119.404314 108 2515ft 124kts
28-Oct-20 17:36 34.281269 -119.366129 121 2519ft 124kts
28-Oct-20 17:37 34.262710 -119.330711 122 2515ft 125kts
28-Oct-20 17:38 34.244366 -119.295028 120 2516ft 125kts
28-Oct-20 17:39 34.226358 -119.258883 122 2516ft 125kts
28-Oct-20 17:40 34.210796 -119.222178 93 2508ft 124kts
28-Oct-20 17:41 34.209564 -119.180593 87 2511ft 123kts
28-Oct-20 17:42 34.209750 -119.139166 87 2522ft 122kts
28-Oct-20 17:43 34.211887 -119.098864 38 2524ft 116kts
28-Oct-20 17:44 34.242726 -119.091225 5 2525ft 113kts
28-Oct-20 17:45 34.258610 -119.106567 249 2526ft 112kts
28-Oct-20 17:46 34.266785 -119.141060 287 2503ft 110kts
28-Oct-20 17:47 34.274915 -119.176430 286 2511ft 109kts
28-Oct-20 17:48 34.283060 -119.211959 286 2517ft 109kts
28-Oct-20 17:49 34.291136 -119.247078 285 2497ft 102kts
28-Oct-20 17:50 34.298887 -119.280885 286 2519ft 107kts
28-Oct-20 17:51 34.306985 -119.316193 286 2519ft 109kts
28-Oct-20 17:52 34.315140 -119.351799 286 2536ft 110kts
28-Oct-20 17:53 34.323344 -119.387685 286 2523ft 108kts
28-Oct-20 17:54 34.331419 -119.423041 286 2526ft 109kts
28-Oct-20 17:55 34.339477 -119.458395 286 2525ft 109kts
28-Oct-20 17:56 34.347548 -119.493856 286 2525ft 109kts
28-Oct-20 17:57 34.355577 -119.529155 286 2525ft 108kts
28-Oct-20 17:58 34.363737 -119.565119 286 2361ft 111kts
28-Oct-20 17:59 34.371979 -119.601464 286 2116ft 113kts
28-Oct-20 18:00 34.380342 -119.638438 286 1815ft 114kts
28-Oct-20 18:01 34.392496 -119.673509 302 1526ft 112kts
28-Oct-20 18:02 34.408278 -119.702467 301 1668ft 96kts
28-Oct-20 18:04 34.420780 -119.732141 308 1447ft 96kts
28-Oct-20 18:05 34.428809 -119.756794 273 1352ft 79kts
28-Oct-20 18:06 34.428640 -119.782787 270 1261ft 77kts
28-Oct-20 18:07 34.428427 -119.809416 266 918ft 83kts
28-Oct-20 18:08 34.427774 -119.839997 268 19ft 79kts
28-Oct-20 18:09 34.426920 -119.851822 177 12ft 8kts
28-Oct-20 18:10 34.426533 -119.851554 128 12ft 10kts
28-Oct-20 18:11 34.426557 -119.845701 88 12ft 21kts
28-Oct-20 18:12 34.425671 -119.841053 166 13ft 14kts
28-Oct-20 18:13 34.422560 -119.837565 76 14ft 14kts
28-Oct-20 18:14 34.423174 -119.835675 161 12ft 0kts
28-Oct-20 18:15 34.423509 -119.835808 161 12ft 0kts

Navigation Log

Ident Type
Flight plan parsing failed, navigation log unavailable